sensor_id;sensor_type;location;lat;lon;timestamp;P1;durP1;ratioP1;P2;durP2;ratioP2
65096;SDS011;51686;46.758;4.356;2023-02-28T00:00:55;11.30;;;4.68;;
65096;SDS011;51686;46.758;4.356;2023-02-28T00:03:42;9.20;;;4.47;;
65096;SDS011;51686;46.758;4.356;2023-02-28T00:06:32;9.52;;;4.22;;
65096;SDS011;51686;46.758;4.356;2023-02-28T00:09:18;8.93;;;4.25;;
65096;SDS011;51686;46.758;4.356;2023-02-28T00:12:05;8.52;;;4.65;;
65096;SDS011;51686;46.758;4.356;2023-02-28T00:14:56;9.10;;;4.70;;
65096;SDS011;51686;46.758;4.356;2023-02-28T00:17:43;11.00;;;4.90;;
65096;SDS011;51686;46.758;4.356;2023-02-28T00:20:30;9.88;;;4.85;;
65096;SDS011;51686;46.758;4.356;2023-02-28T00:23:17;8.50;;;4.55;;
65096;SDS011;51686;46.758;4.356;2023-02-28T00:26:03;8.23;;;4.00;;
65096;SDS011;51686;46.758;4.356;2023-02-28T00:28:51;9.90;;;4.70;;
65096;SDS011;51686;46.758;4.356;2023-02-28T00:31:39;8.95;;;4.47;;
65096;SDS011;51686;46.758;4.356;2023-02-28T00:34:26;8.95;;;4.30;;
65096;SDS011;51686;46.758;4.356;2023-02-28T00:37:12;9.23;;;4.55;;
65096;SDS011;51686;46.758;4.356;2023-02-28T00:39:59;10.13;;;4.72;;
65096;SDS011;51686;46.758;4.356;2023-02-28T00:42:48;10.00;;;4.73;;
65096;SDS011;51686;46.758;4.356;2023-02-28T00:45:37;10.02;;;4.63;;
65096;SDS011;51686;46.758;4.356;2023-02-28T00:48:24;9.07;;;4.47;;
65096;SDS011;51686;46.758;4.356;2023-02-28T00:51:10;9.50;;;4.90;;
65096;SDS011;51686;46.758;4.356;2023-02-28T00:53:59;9.02;;;4.60;;
65096;SDS011;51686;46.758;4.356;2023-02-28T00:56:47;9.18;;;4.70;;
65096;SDS011;51686;46.758;4.356;2023-02-28T00:59:34;10.35;;;4.90;;
65096;SDS011;51686;46.758;4.356;2023-02-28T01:02:24;10.05;;;4.72;;
65096;SDS011;51686;46.758;4.356;2023-02-28T01:05:11;10.05;;;5.05;;
65096;SDS011;51686;46.758;4.356;2023-02-28T01:07:57;11.38;;;5.13;;
65096;SDS011;51686;46.758;4.356;2023-02-28T01:10:44;10.13;;;4.70;;
65096;SDS011;51686;46.758;4.356;2023-02-28T01:13:31;9.48;;;4.38;;
65096;SDS011;51686;46.758;4.356;2023-02-28T01:16:18;8.93;;;4.60;;
65096;SDS011;51686;46.758;4.356;2023-02-28T01:19:05;9.32;;;4.70;;
65096;SDS011;51686;46.758;4.356;2023-02-28T01:21:52;9.73;;;5.00;;
65096;SDS011;51686;46.758;4.356;2023-02-28T01:24:38;9.38;;;4.60;;
65096;SDS011;51686;46.758;4.356;2023-02-28T01:27:25;11.07;;;5.45;;
65096;SDS011;51686;46.758;4.356;2023-02-28T01:30:13;9.98;;;4.70;;
65096;SDS011;51686;46.758;4.356;2023-02-28T01:33:00;11.93;;;5.35;;
65096;SDS011;51686;46.758;4.356;2023-02-28T01:35:47;10.65;;;5.25;;
65096;SDS011;51686;46.758;4.356;2023-02-28T01:38:34;9.10;;;4.63;;
65096;SDS011;51686;46.758;4.356;2023-02-28T01:41:26;9.88;;;4.90;;
65096;SDS011;51686;46.758;4.356;2023-02-28T01:47:41;9.90;;;5.00;;
65096;SDS011;51686;46.758;4.356;2023-02-28T01:50:30;9.77;;;4.93;;
65096;SDS011;51686;46.758;4.356;2023-02-28T01:53:20;10.48;;;4.68;;
65096;SDS011;51686;46.758;4.356;2023-02-28T01:56:10;11.20;;;4.80;;
65096;SDS011;51686;46.758;4.356;2023-02-28T01:58:59;10.07;;;5.05;;
65096;SDS011;51686;46.758;4.356;2023-02-28T02:01:46;10.60;;;5.38;;
65096;SDS011;51686;46.758;4.356;2023-02-28T02:08:55;11.95;;;5.40;;
65096;SDS011;51686;46.758;4.356;2023-02-28T02:11:43;11.02;;;5.30;;
65096;SDS011;51686;46.758;4.356;2023-02-28T02:17:35;11.15;;;5.47;;
65096;SDS011;51686;46.758;4.356;2023-02-28T02:37:03;10.02;;;4.72;;
65096;SDS011;51686;46.758;4.356;2023-02-28T02:43:12;11.15;;;5.63;;
65096;SDS011;51686;46.758;4.356;2023-02-28T02:49:28;10.57;;;4.90;;
65096;SDS011;51686;46.758;4.356;2023-02-28T02:52:18;9.88;;;5.28;;
65096;SDS011;51686;46.758;4.356;2023-02-28T02:55:08;12.15;;;5.43;;
65096;SDS011;51686;46.758;4.356;2023-02-28T02:57:59;11.18;;;5.47;;
65096;SDS011;51686;46.758;4.356;2023-02-28T03:00:51;10.80;;;5.55;;
65096;SDS011;51686;46.758;4.356;2023-02-28T03:03:40;11.18;;;5.82;;
65096;SDS011;51686;46.758;4.356;2023-02-28T03:06:27;11.60;;;5.85;;
65096;SDS011;51686;46.758;4.356;2023-02-28T03:09:13;10.50;;;5.05;;
65096;SDS011;51686;46.758;4.356;2023-02-28T03:12:00;12.57;;;5.78;;
65096;SDS011;51686;46.758;4.356;2023-02-28T03:21:06;13.45;;;6.32;;
65096;SDS011;51686;46.758;4.356;2023-02-28T03:24:52;12.43;;;6.25;;
65096;SDS011;51686;46.758;4.356;2023-02-28T03:27:20;11.35;;;5.88;;
65096;SDS011;51686;46.758;4.356;2023-02-28T03:30:26;10.65;;;6.05;;
65096;SDS011;51686;46.758;4.356;2023-02-28T03:33:29;10.93;;;5.68;;
65096;SDS011;51686;46.758;4.356;2023-02-28T03:36:18;11.05;;;6.05;;
65096;SDS011;51686;46.758;4.356;2023-02-28T03:39:07;10.33;;;5.80;;
65096;SDS011;51686;46.758;4.356;2023-02-28T03:41:59;11.82;;;6.07;;
65096;SDS011;51686;46.758;4.356;2023-02-28T03:44:56;11.85;;;5.85;;
65096;SDS011;51686;46.758;4.356;2023-02-28T03:50:42;11.15;;;5.82;;
65096;SDS011;51686;46.758;4.356;2023-02-28T03:53:32;12.18;;;6.03;;
65096;SDS011;51686;46.758;4.356;2023-02-28T03:56:23;11.60;;;6.20;;
65096;SDS011;51686;46.758;4.356;2023-02-28T04:02:14;12.98;;;6.97;;
65096;SDS011;51686;46.758;4.356;2023-02-28T04:05:01;12.82;;;6.53;;
65096;SDS011;51686;46.758;4.356;2023-02-28T04:07:48;12.80;;;6.57;;
65096;SDS011;51686;46.758;4.356;2023-02-28T04:10:35;11.73;;;6.50;;
65096;SDS011;51686;46.758;4.356;2023-02-28T04:13:22;12.00;;;6.25;;
65096;SDS011;51686;46.758;4.356;2023-02-28T04:16:09;12.05;;;6.70;;
65096;SDS011;51686;46.758;4.356;2023-02-28T04:19:17;14.48;;;7.15;;
65096;SDS011;51686;46.758;4.356;2023-02-28T04:22:04;12.43;;;6.88;;
65096;SDS011;51686;46.758;4.356;2023-02-28T04:24:51;11.93;;;6.68;;
65096;SDS011;51686;46.758;4.356;2023-02-28T04:27:40;12.40;;;5.95;;
65096;SDS011;51686;46.758;4.356;2023-02-28T04:30:27;11.07;;;6.00;;
65096;SDS011;51686;46.758;4.356;2023-02-28T04:33:16;13.90;;;7.07;;
65096;SDS011;51686;46.758;4.356;2023-02-28T04:36:04;12.27;;;6.68;;
65096;SDS011;51686;46.758;4.356;2023-02-28T04:38:52;13.43;;;6.28;;
65096;SDS011;51686;46.758;4.356;2023-02-28T04:41:39;12.43;;;6.55;;
65096;SDS011;51686;46.758;4.356;2023-02-28T04:44:26;14.35;;;6.97;;
65096;SDS011;51686;46.758;4.356;2023-02-28T04:47:13;12.93;;;7.10;;
65096;SDS011;51686;46.758;4.356;2023-02-28T04:50:00;11.70;;;6.75;;
65096;SDS011;51686;46.758;4.356;2023-02-28T04:52:47;13.95;;;7.53;;
65096;SDS011;51686;46.758;4.356;2023-02-28T04:55:33;12.77;;;6.88;;
65096;SDS011;51686;46.758;4.356;2023-02-28T04:58:20;14.32;;;7.30;;
65096;SDS011;51686;46.758;4.356;2023-02-28T05:01:16;12.95;;;7.40;;
65096;SDS011;51686;46.758;4.356;2023-02-28T05:04:14;13.82;;;7.50;;
65096;SDS011;51686;46.758;4.356;2023-02-28T05:07:04;13.90;;;7.00;;
65096;SDS011;51686;46.758;4.356;2023-02-28T05:09:51;12.52;;;6.90;;
65096;SDS011;51686;46.758;4.356;2023-02-28T05:12:39;13.50;;;7.63;;
65096;SDS011;51686;46.758;4.356;2023-02-28T05:15:26;13.68;;;7.15;;
65096;SDS011;51686;46.758;4.356;2023-02-28T05:18:13;14.65;;;7.40;;
65096;SDS011;51686;46.758;4.356;2023-02-28T05:20:59;14.52;;;7.20;;
65096;SDS011;51686;46.758;4.356;2023-02-28T05:23:49;13.63;;;7.07;;
65096;SDS011;51686;46.758;4.356;2023-02-28T05:26:37;13.23;;;6.85;;
65096;SDS011;51686;46.758;4.356;2023-02-28T05:29:27;13.10;;;7.13;;
65096;SDS011;51686;46.758;4.356;2023-02-28T05:32:14;15.65;;;7.38;;
65096;SDS011;51686;46.758;4.356;2023-02-28T05:35:02;12.80;;;7.60;;
65096;SDS011;51686;46.758;4.356;2023-02-28T05:37:49;13.55;;;7.20;;
65096;SDS011;51686;46.758;4.356;2023-02-28T05:40:45;13.27;;;7.55;;
65096;SDS011;51686;46.758;4.356;2023-02-28T05:43:31;13.05;;;7.35;;
65096;SDS011;51686;46.758;4.356;2023-02-28T05:46:18;13.40;;;7.35;;
65096;SDS011;51686;46.758;4.356;2023-02-28T05:49:05;15.15;;;7.38;;
65096;SDS011;51686;46.758;4.356;2023-02-28T05:51:52;13.73;;;7.35;;
65096;SDS011;51686;46.758;4.356;2023-02-28T05:54:40;13.93;;;7.60;;
65096;SDS011;51686;46.758;4.356;2023-02-28T05:57:28;13.23;;;6.85;;
65096;SDS011;51686;46.758;4.356;2023-02-28T06:00:19;14.70;;;7.75;;
65096;SDS011;51686;46.758;4.356;2023-02-28T06:06:07;13.40;;;7.85;;
65096;SDS011;51686;46.758;4.356;2023-02-28T06:08:53;14.00;;;7.55;;
65096;SDS011;51686;46.758;4.356;2023-02-28T06:11:41;14.05;;;7.40;;
65096;SDS011;51686;46.758;4.356;2023-02-28T06:14:33;12.85;;;7.22;;
65096;SDS011;51686;46.758;4.356;2023-02-28T06:17:24;14.07;;;7.22;;
65096;SDS011;51686;46.758;4.356;2023-02-28T06:20:11;13.38;;;6.85;;
65096;SDS011;51686;46.758;4.356;2023-02-28T06:23:01;14.07;;;7.30;;
65096;SDS011;51686;46.758;4.356;2023-02-28T06:25:54;13.40;;;7.78;;
65096;SDS011;51686;46.758;4.356;2023-02-28T06:28:44;14.20;;;8.07;;
65096;SDS011;51686;46.758;4.356;2023-02-28T06:31:31;15.13;;;7.60;;
65096;SDS011;51686;46.758;4.356;2023-02-28T06:34:20;15.13;;;8.13;;
65096;SDS011;51686;46.758;4.356;2023-02-28T06:37:09;14.73;;;8.63;;
65096;SDS011;51686;46.758;4.356;2023-02-28T06:39:56;14.90;;;8.30;;
65096;SDS011;51686;46.758;4.356;2023-02-28T06:42:43;15.27;;;9.07;;
65096;SDS011;51686;46.758;4.356;2023-02-28T06:45:30;16.00;;;8.68;;
65096;SDS011;51686;46.758;4.356;2023-02-28T06:48:17;14.18;;;8.00;;
65096;SDS011;51686;46.758;4.356;2023-02-28T06:51:08;15.18;;;8.48;;
65096;SDS011;51686;46.758;4.356;2023-02-28T06:53:57;14.25;;;8.07;;
65096;SDS011;51686;46.758;4.356;2023-02-28T06:56:44;13.82;;;7.88;;
65096;SDS011;51686;46.758;4.356;2023-02-28T06:59:30;15.10;;;8.05;;
65096;SDS011;51686;46.758;4.356;2023-02-28T07:02:17;14.30;;;8.43;;
65096;SDS011;51686;46.758;4.356;2023-02-28T07:05:04;15.57;;;7.72;;
65096;SDS011;51686;46.758;4.356;2023-02-28T07:07:52;14.77;;;7.22;;
65096;SDS011;51686;46.758;4.356;2023-02-28T07:10:39;14.32;;;7.32;;
65096;SDS011;51686;46.758;4.356;2023-02-28T07:13:26;14.68;;;7.63;;
65096;SDS011;51686;46.758;4.356;2023-02-28T07:16:13;12.57;;;6.38;;
65096;SDS011;51686;46.758;4.356;2023-02-28T07:19:00;13.52;;;7.30;;
65096;SDS011;51686;46.758;4.356;2023-02-28T07:21:47;12.85;;;7.07;;
65096;SDS011;51686;46.758;4.356;2023-02-28T07:24:34;12.88;;;6.97;;
65096;SDS011;51686;46.758;4.356;2023-02-28T07:27:21;11.95;;;6.05;;
65096;SDS011;51686;46.758;4.356;2023-02-28T07:30:12;11.73;;;5.50;;
65096;SDS011;51686;46.758;4.356;2023-02-28T07:32:59;12.18;;;6.13;;
65096;SDS011;51686;46.758;4.356;2023-02-28T07:35:45;10.73;;;5.45;;
65096;SDS011;51686;46.758;4.356;2023-02-28T07:38:36;12.50;;;6.28;;
65096;SDS011;51686;46.758;4.356;2023-02-28T07:41:23;12.05;;;5.22;;
65096;SDS011;51686;46.758;4.356;2023-02-28T07:44:14;12.35;;;6.28;;
65096;SDS011;51686;46.758;4.356;2023-02-28T07:47:01;11.98;;;5.78;;
65096;SDS011;51686;46.758;4.356;2023-02-28T07:49:48;10.02;;;5.07;;
65096;SDS011;51686;46.758;4.356;2023-02-28T07:52:35;10.25;;;4.90;;
65096;SDS011;51686;46.758;4.356;2023-02-28T07:55:23;10.27;;;5.07;;
65096;SDS011;51686;46.758;4.356;2023-02-28T07:58:10;11.18;;;5.20;;
65096;SDS011;51686;46.758;4.356;2023-02-28T08:00:57;10.73;;;5.05;;
65096;SDS011;51686;46.758;4.356;2023-02-28T08:03:44;11.38;;;5.07;;
65096;SDS011;51686;46.758;4.356;2023-02-28T08:06:31;10.80;;;4.97;;
65096;SDS011;51686;46.758;4.356;2023-02-28T08:09:17;10.98;;;5.20;;
65096;SDS011;51686;46.758;4.356;2023-02-28T08:12:05;12.18;;;5.28;;
65096;SDS011;51686;46.758;4.356;2023-02-28T08:14:54;9.45;;;4.60;;
65096;SDS011;51686;46.758;4.356;2023-02-28T08:17:41;10.50;;;4.78;;
65096;SDS011;51686;46.758;4.356;2023-02-28T08:20:28;9.85;;;4.80;;
65096;SDS011;51686;46.758;4.356;2023-02-28T08:23:17;10.65;;;5.25;;
65096;SDS011;51686;46.758;4.356;2023-02-28T08:26:06;10.30;;;4.80;;
65096;SDS011;51686;46.758;4.356;2023-02-28T08:28:53;10.25;;;5.18;;
65096;SDS011;51686;46.758;4.356;2023-02-28T08:31:42;10.60;;;4.47;;
65096;SDS011;51686;46.758;4.356;2023-02-28T08:34:29;9.85;;;4.72;;
65096;SDS011;51686;46.758;4.356;2023-02-28T08:37:18;10.25;;;4.72;;
65096;SDS011;51686;46.758;4.356;2023-02-28T08:40:08;10.18;;;4.70;;
65096;SDS011;51686;46.758;4.356;2023-02-28T08:43:04;11.10;;;4.60;;
65096;SDS011;51686;46.758;4.356;2023-02-28T08:45:55;10.38;;;4.85;;
65096;SDS011;51686;46.758;4.356;2023-02-28T08:48:45;9.68;;;4.72;;
65096;SDS011;51686;46.758;4.356;2023-02-28T08:51:32;10.77;;;5.13;;
65096;SDS011;51686;46.758;4.356;2023-02-28T08:54:19;10.93;;;5.00;;
65096;SDS011;51686;46.758;4.356;2023-02-28T08:57:06;10.40;;;4.78;;
65096;SDS011;51686;46.758;4.356;2023-02-28T08:59:52;10.05;;;4.75;;
65096;SDS011;51686;46.758;4.356;2023-02-28T09:02:40;9.30;;;4.50;;
65096;SDS011;51686;46.758;4.356;2023-02-28T09:05:27;11.98;;;5.05;;
65096;SDS011;51686;46.758;4.356;2023-02-28T09:08:16;10.43;;;5.05;;
65096;SDS011;51686;46.758;4.356;2023-02-28T09:11:04;10.88;;;4.80;;
65096;SDS011;51686;46.758;4.356;2023-02-28T09:13:50;10.68;;;5.18;;
65096;SDS011;51686;46.758;4.356;2023-02-28T09:16:37;10.77;;;5.80;;
65096;SDS011;51686;46.758;4.356;2023-02-28T09:19:24;9.98;;;4.85;;
65096;SDS011;51686;46.758;4.356;2023-02-28T09:22:11;10.85;;;5.50;;
65096;SDS011;51686;46.758;4.356;2023-02-28T09:24:58;10.73;;;5.20;;
65096;SDS011;51686;46.758;4.356;2023-02-28T09:27:45;10.55;;;4.95;;
65096;SDS011;51686;46.758;4.356;2023-02-28T09:30:33;11.40;;;5.57;;
65096;SDS011;51686;46.758;4.356;2023-02-28T09:33:21;11.98;;;5.32;;
65096;SDS011;51686;46.758;4.356;2023-02-28T09:36:08;10.23;;;4.88;;
65096;SDS011;51686;46.758;4.356;2023-02-28T09:38:55;11.45;;;5.40;;
65096;SDS011;51686;46.758;4.356;2023-02-28T09:41:45;12.98;;;6.18;;
65096;SDS011;51686;46.758;4.356;2023-02-28T09:44:36;11.07;;;5.20;;
65096;SDS011;51686;46.758;4.356;2023-02-28T09:47:30;12.40;;;5.55;;
65096;SDS011;51686;46.758;4.356;2023-02-28T09:59:39;10.57;;;5.22;;
65096;SDS011;51686;46.758;4.356;2023-02-28T10:02:49;12.07;;;5.40;;
65096;SDS011;51686;46.758;4.356;2023-02-28T10:05:41;11.60;;;5.82;;
65096;SDS011;51686;46.758;4.356;2023-02-28T10:08:36;12.13;;;5.65;;
65096;SDS011;51686;46.758;4.356;2023-02-28T10:11:35;11.40;;;5.38;;
65096;SDS011;51686;46.758;4.356;2023-02-28T10:14:24;11.88;;;5.60;;
65096;SDS011;51686;46.758;4.356;2023-02-28T10:17:17;12.43;;;5.40;;
65096;SDS011;51686;46.758;4.356;2023-02-28T10:20:12;11.63;;;5.78;;
65096;SDS011;51686;46.758;4.356;2023-02-28T10:26:34;10.30;;;5.05;;
65096;SDS011;51686;46.758;4.356;2023-02-28T10:29:23;11.90;;;5.43;;
65096;SDS011;51686;46.758;4.356;2023-02-28T10:32:10;11.80;;;5.55;;
65096;SDS011;51686;46.758;4.356;2023-02-28T10:38:04;11.98;;;5.95;;
65096;SDS011;51686;46.758;4.356;2023-02-28T10:41:08;11.73;;;5.32;;
65096;SDS011;51686;46.758;4.356;2023-02-28T10:44:21;11.27;;;5.60;;
65096;SDS011;51686;46.758;4.356;2023-02-28T10:47:14;10.50;;;5.15;;
65096;SDS011;51686;46.758;4.356;2023-02-28T10:50:02;11.25;;;5.05;;
65096;SDS011;51686;46.758;4.356;2023-02-28T10:52:49;10.73;;;5.22;;
65096;SDS011;51686;46.758;4.356;2023-02-28T10:55:36;11.18;;;5.60;;
65096;SDS011;51686;46.758;4.356;2023-02-28T10:58:24;12.60;;;5.88;;
65096;SDS011;51686;46.758;4.356;2023-02-28T11:01:16;11.40;;;5.57;;
65096;SDS011;51686;46.758;4.356;2023-02-28T11:04:32;12.00;;;5.72;;
65096;SDS011;51686;46.758;4.356;2023-02-28T11:07:23;12.07;;;5.43;;
65096;SDS011;51686;46.758;4.356;2023-02-28T11:10:18;12.13;;;5.40;;
65096;SDS011;51686;46.758;4.356;2023-02-28T11:13:12;12.60;;;5.90;;
65096;SDS011;51686;46.758;4.356;2023-02-28T11:16:05;13.23;;;6.07;;
65096;SDS011;51686;46.758;4.356;2023-02-28T11:18:54;11.27;;;5.30;;
65096;SDS011;51686;46.758;4.356;2023-02-28T11:21:45;10.70;;;5.70;;
65096;SDS011;51686;46.758;4.356;2023-02-28T11:24:41;12.05;;;5.97;;
65096;SDS011;51686;46.758;4.356;2023-02-28T11:30:27;13.00;;;6.00;;
65096;SDS011;51686;46.758;4.356;2023-02-28T11:33:29;12.43;;;5.78;;
65096;SDS011;51686;46.758;4.356;2023-02-28T11:36:27;11.50;;;5.75;;
65096;SDS011;51686;46.758;4.356;2023-02-28T11:39:15;11.50;;;5.70;;
65096;SDS011;51686;46.758;4.356;2023-02-28T11:51:35;12.85;;;6.00;;
65096;SDS011;51686;46.758;4.356;2023-02-28T11:57:32;12.77;;;6.03;;
65096;SDS011;51686;46.758;4.356;2023-02-28T12:00:28;12.30;;;5.50;;
65096;SDS011;51686;46.758;4.356;2023-02-28T12:06:30;11.95;;;6.15;;
65096;SDS011;51686;46.758;4.356;2023-02-28T12:12:46;14.88;;;7.47;;
65096;SDS011;51686;46.758;4.356;2023-02-28T12:27:41;13.75;;;6.97;;
65096;SDS011;51686;46.758;4.356;2023-02-28T12:30:35;13.55;;;6.68;;
65096;SDS011;51686;46.758;4.356;2023-02-28T12:33:24;13.70;;;7.10;;
65096;SDS011;51686;46.758;4.356;2023-02-28T12:36:17;15.60;;;7.13;;
65096;SDS011;51686;46.758;4.356;2023-02-28T12:39:10;13.15;;;6.57;;
65096;SDS011;51686;46.758;4.356;2023-02-28T12:42:00;12.55;;;6.57;;
65096;SDS011;51686;46.758;4.356;2023-02-28T12:44:52;13.30;;;6.63;;
65096;SDS011;51686;46.758;4.356;2023-02-28T12:47:42;12.85;;;6.93;;
65096;SDS011;51686;46.758;4.356;2023-02-28T12:50:38;13.27;;;7.05;;
65096;SDS011;51686;46.758;4.356;2023-02-28T12:53:31;14.30;;;6.65;;
65096;SDS011;51686;46.758;4.356;2023-02-28T13:00:03;12.52;;;6.30;;
65096;SDS011;51686;46.758;4.356;2023-02-28T13:05:58;11.57;;;5.80;;
65096;SDS011;51686;46.758;4.356;2023-02-28T13:11:54;11.38;;;6.00;;
65096;SDS011;51686;46.758;4.356;2023-02-28T13:14:44;12.70;;;6.43;;
65096;SDS011;51686;46.758;4.356;2023-02-28T13:17:33;12.60;;;6.40;;
65096;SDS011;51686;46.758;4.356;2023-02-28T13:20:21;12.80;;;6.65;;
65096;SDS011;51686;46.758;4.356;2023-02-28T13:23:36;13.30;;;6.00;;
65096;SDS011;51686;46.758;4.356;2023-02-28T13:29:29;12.05;;;6.32;;
65096;SDS011;51686;46.758;4.356;2023-02-28T13:32:28;11.90;;;6.15;;
65096;SDS011;51686;46.758;4.356;2023-02-28T13:35:34;11.50;;;6.22;;
65096;SDS011;51686;46.758;4.356;2023-02-28T13:38:23;10.07;;;5.55;;
65096;SDS011;51686;46.758;4.356;2023-02-28T13:44:20;12.25;;;5.80;;
65096;SDS011;51686;46.758;4.356;2023-02-28T13:47:19;12.07;;;5.70;;
65096;SDS011;51686;46.758;4.356;2023-02-28T13:50:14;11.25;;;5.40;;
65096;SDS011;51686;46.758;4.356;2023-02-28T13:59:23;11.88;;;5.68;;
65096;SDS011;51686;46.758;4.356;2023-02-28T14:02:31;11.20;;;6.07;;
65096;SDS011;51686;46.758;4.356;2023-02-28T14:05:22;11.40;;;5.75;;
65096;SDS011;51686;46.758;4.356;2023-02-28T14:08:21;11.70;;;6.30;;
65096;SDS011;51686;46.758;4.356;2023-02-28T14:11:15;10.90;;;5.88;;
65096;SDS011;51686;46.758;4.356;2023-02-28T14:17:23;11.55;;;5.63;;
65096;SDS011;51686;46.758;4.356;2023-02-28T14:20:15;12.50;;;5.90;;
65096;SDS011;51686;46.758;4.356;2023-02-28T14:32:26;11.70;;;5.85;;
65096;SDS011;51686;46.758;4.356;2023-02-28T14:38:24;11.85;;;5.68;;
65096;SDS011;51686;46.758;4.356;2023-02-28T14:44:28;11.07;;;5.35;;
65096;SDS011;51686;46.758;4.356;2023-02-28T14:47:15;10.93;;;5.88;;
65096;SDS011;51686;46.758;4.356;2023-02-28T14:50:03;12.25;;;6.40;;
65096;SDS011;51686;46.758;4.356;2023-02-28T14:52:56;11.63;;;5.65;;
65096;SDS011;51686;46.758;4.356;2023-02-28T14:55:46;11.48;;;5.82;;
65096;SDS011;51686;46.758;4.356;2023-02-28T14:58:33;11.60;;;6.10;;
65096;SDS011;51686;46.758;4.356;2023-02-28T15:01:21;11.15;;;5.55;;
65096;SDS011;51686;46.758;4.356;2023-02-28T15:04:12;11.25;;;5.50;;
65096;SDS011;51686;46.758;4.356;2023-02-28T15:07:12;12.20;;;6.07;;
65096;SDS011;51686;46.758;4.356;2023-02-28T15:10:15;11.88;;;6.20;;
65096;SDS011;51686;46.758;4.356;2023-02-28T15:13:07;11.30;;;5.57;;
65096;SDS011;51686;46.758;4.356;2023-02-28T15:15:57;11.70;;;5.78;;
65096;SDS011;51686;46.758;4.356;2023-02-28T15:18:49;10.15;;;5.20;;
65096;SDS011;51686;46.758;4.356;2023-02-28T15:21:39;10.65;;;5.50;;
65096;SDS011;51686;46.758;4.356;2023-02-28T15:24:35;11.23;;;5.57;;
65096;SDS011;51686;46.758;4.356;2023-02-28T15:27:25;11.35;;;5.70;;
65096;SDS011;51686;46.758;4.356;2023-02-28T15:30:15;12.55;;;6.20;;
65096;SDS011;51686;46.758;4.356;2023-02-28T15:36:07;11.02;;;5.75;;
65096;SDS011;51686;46.758;4.356;2023-02-28T15:38:59;11.02;;;5.35;;
65096;SDS011;51686;46.758;4.356;2023-02-28T15:42:10;10.38;;;5.07;;
65096;SDS011;51686;46.758;4.356;2023-02-28T15:44:58;11.35;;;5.75;;
65096;SDS011;51686;46.758;4.356;2023-02-28T15:47:46;11.73;;;5.95;;
65096;SDS011;51686;46.758;4.356;2023-02-28T15:50:33;10.52;;;5.47;;
65096;SDS011;51686;46.758;4.356;2023-02-28T15:53:22;10.18;;;5.13;;
65096;SDS011;51686;46.758;4.356;2023-02-28T15:56:19;11.40;;;5.88;;
65096;SDS011;51686;46.758;4.356;2023-02-28T15:59:18;11.55;;;5.45;;
65096;SDS011;51686;46.758;4.356;2023-02-28T16:05:01;11.63;;;6.07;;
65096;SDS011;51686;46.758;4.356;2023-02-28T16:08:14;11.45;;;5.55;;
65096;SDS011;51686;46.758;4.356;2023-02-28T16:11:01;12.13;;;6.22;;
65096;SDS011;51686;46.758;4.356;2023-02-28T16:13:51;11.68;;;6.20;;
65096;SDS011;51686;46.758;4.356;2023-02-28T16:16:41;11.85;;;6.40;;
65096;SDS011;51686;46.758;4.356;2023-02-28T16:19:35;11.18;;;5.80;;
65096;SDS011;51686;46.758;4.356;2023-02-28T16:25:19;11.93;;;5.68;;
65096;SDS011;51686;46.758;4.356;2023-02-28T16:28:20;11.50;;;6.10;;
65096;SDS011;51686;46.758;4.356;2023-02-28T16:31:10;11.35;;;5.82;;
65096;SDS011;51686;46.758;4.356;2023-02-28T16:34:02;11.73;;;6.60;;
65096;SDS011;51686;46.758;4.356;2023-02-28T16:36:49;10.48;;;5.70;;
65096;SDS011;51686;46.758;4.356;2023-02-28T16:39:37;12.38;;;6.03;;
65096;SDS011;51686;46.758;4.356;2023-02-28T16:42:25;12.52;;;6.38;;
65096;SDS011;51686;46.758;4.356;2023-02-28T16:45:24;11.88;;;6.30;;
65096;SDS011;51686;46.758;4.356;2023-02-28T16:48:13;11.77;;;6.13;;
65096;SDS011;51686;46.758;4.356;2023-02-28T16:51:01;12.05;;;6.13;;
65096;SDS011;51686;46.758;4.356;2023-02-28T16:53:50;13.20;;;6.28;;
65096;SDS011;51686;46.758;4.356;2023-02-28T16:56:37;12.35;;;5.88;;
65096;SDS011;51686;46.758;4.356;2023-02-28T16:59:31;12.73;;;6.45;;
65096;SDS011;51686;46.758;4.356;2023-02-28T17:02:19;11.80;;;5.90;;
65096;SDS011;51686;46.758;4.356;2023-02-28T17:05:06;12.05;;;6.10;;
65096;SDS011;51686;46.758;4.356;2023-02-28T17:07:53;13.02;;;6.68;;
65096;SDS011;51686;46.758;4.356;2023-02-28T17:10:40;12.60;;;6.82;;
65096;SDS011;51686;46.758;4.356;2023-02-28T17:13:27;12.40;;;6.55;;
65096;SDS011;51686;46.758;4.356;2023-02-28T17:16:24;12.90;;;7.45;;
65096;SDS011;51686;46.758;4.356;2023-02-28T17:19:30;13.23;;;6.78;;
65096;SDS011;51686;46.758;4.356;2023-02-28T17:22:19;13.30;;;6.95;;
65096;SDS011;51686;46.758;4.356;2023-02-28T17:27:53;12.70;;;6.38;;
65096;SDS011;51686;46.758;4.356;2023-02-28T17:30:41;12.32;;;6.50;;
65096;SDS011;51686;46.758;4.356;2023-02-28T17:33:33;12.93;;;6.97;;
65096;SDS011;51686;46.758;4.356;2023-02-28T17:36:21;13.52;;;6.40;;
65096;SDS011;51686;46.758;4.356;2023-02-28T17:39:09;14.18;;;6.90;;
65096;SDS011;51686;46.758;4.356;2023-02-28T17:41:57;14.05;;;7.38;;
65096;SDS011;51686;46.758;4.356;2023-02-28T17:44:44;12.95;;;6.57;;
65096;SDS011;51686;46.758;4.356;2023-02-28T17:47:31;13.80;;;7.00;;
65096;SDS011;51686;46.758;4.356;2023-02-28T17:50:19;14.40;;;7.30;;
65096;SDS011;51686;46.758;4.356;2023-02-28T17:53:07;14.15;;;7.03;;
65096;SDS011;51686;46.758;4.356;2023-02-28T17:55:54;14.13;;;6.88;;
65096;SDS011;51686;46.758;4.356;2023-02-28T17:58:41;12.50;;;6.93;;
65096;SDS011;51686;46.758;4.356;2023-02-28T18:01:28;14.18;;;6.90;;
65096;SDS011;51686;46.758;4.356;2023-02-28T18:04:15;13.68;;;7.35;;
65096;SDS011;51686;46.758;4.356;2023-02-28T18:07:02;14.70;;;7.60;;
65096;SDS011;51686;46.758;4.356;2023-02-28T18:09:49;13.15;;;7.18;;
65096;SDS011;51686;46.758;4.356;2023-02-28T18:12:36;13.38;;;7.20;;
65096;SDS011;51686;46.758;4.356;2023-02-28T18:15:24;13.45;;;7.40;;
65096;SDS011;51686;46.758;4.356;2023-02-28T18:18:11;15.25;;;8.00;;
65096;SDS011;51686;46.758;4.356;2023-02-28T18:20:58;14.55;;;7.80;;
65096;SDS011;51686;46.758;4.356;2023-02-28T18:23:45;14.20;;;7.40;;
65096;SDS011;51686;46.758;4.356;2023-02-28T18:26:36;13.88;;;7.63;;
65096;SDS011;51686;46.758;4.356;2023-02-28T18:29:24;14.73;;;7.45;;
65096;SDS011;51686;46.758;4.356;2023-02-28T18:32:13;14.50;;;7.80;;
65096;SDS011;51686;46.758;4.356;2023-02-28T18:35:00;13.20;;;7.47;;
65096;SDS011;51686;46.758;4.356;2023-02-28T18:37:47;14.05;;;7.30;;
65096;SDS011;51686;46.758;4.356;2023-02-28T18:40:34;16.52;;;8.15;;
65096;SDS011;51686;46.758;4.356;2023-02-28T18:43:22;14.05;;;7.65;;
65096;SDS011;51686;46.758;4.356;2023-02-28T18:46:10;14.02;;;7.35;;
65096;SDS011;51686;46.758;4.356;2023-02-28T18:48:59;14.18;;;7.72;;
65096;SDS011;51686;46.758;4.356;2023-02-28T18:51:48;14.68;;;8.63;;
65096;SDS011;51686;46.758;4.356;2023-02-28T18:54:36;13.75;;;8.30;;
65096;SDS011;51686;46.758;4.356;2023-02-28T18:57:25;15.43;;;8.32;;
65096;SDS011;51686;46.758;4.356;2023-02-28T19:00:13;14.68;;;7.47;;
65096;SDS011;51686;46.758;4.356;2023-02-28T19:03:08;14.70;;;8.13;;
65096;SDS011;51686;46.758;4.356;2023-02-28T19:05:58;14.55;;;8.00;;
65096;SDS011;51686;46.758;4.356;2023-02-28T19:08:46;16.38;;;8.63;;
65096;SDS011;51686;46.758;4.356;2023-02-28T19:11:34;15.15;;;7.90;;
65096;SDS011;51686;46.758;4.356;2023-02-28T19:14:24;15.73;;;7.82;;
65096;SDS011;51686;46.758;4.356;2023-02-28T19:17:11;13.75;;;7.43;;
65096;SDS011;51686;46.758;4.356;2023-02-28T19:19:59;14.77;;;8.00;;
65096;SDS011;51686;46.758;4.356;2023-02-28T19:22:46;15.18;;;8.38;;